sensor_id;sensor_type;location;lat;lon;timestamp;pressure;altitude;pressure_sealevel;temperature;humidity
12801;BME280;6464;42.494;27.470;2023-04-29T00:00:01;100638.97;;;8.00;100.00
12801;BME280;6464;42.494;27.470;2023-04-29T00:02:29;100566.69;;;7.61;100.00
12801;BME280;6464;42.494;27.470;2023-04-29T00:04:58;100585.00;;;7.67;100.00
12801;BME280;6464;42.494;27.470;2023-04-29T00:07:25;100699.97;;;8.31;100.00
12801;BME280;6464;42.494;27.470;2023-04-29T00:09:53;100599.81;;;7.76;100.00
12801;BME280;6464;42.494;27.470;2023-04-29T00:12:20;100640.75;;;7.96;100.00
12801;BME280;6464;42.494;27.470;2023-04-29T00:14:47;100554.63;;;7.41;100.00
12801;BME280;6464;42.494;27.470;2023-04-29T00:17:15;100667.13;;;7.81;100.00
12801;BME280;6464;42.494;27.470;2023-04-29T00:19:42;100596.47;;;7.60;100.00
12801;BME280;6464;42.494;27.470;2023-04-29T00:22:10;100652.38;;;7.69;100.00
12801;BME280;6464;42.494;27.470;2023-04-29T00:24:37;100447.78;;;6.53;100.00
12801;BME280;6464;42.494;27.470;2023-04-29T00:27:05;100475.72;;;6.49;100.00
12801;BME280;6464;42.494;27.470;2023-04-29T00:29:33;100695.00;;;8.01;100.00
12801;BME280;6464;42.494;27.470;2023-04-29T00:32:00;100489.59;;;6.65;100.00
12801;BME280;6464;42.494;27.470;2023-04-29T00:34:27;100436.50;;;6.40;100.00
12801;BME280;6464;42.494;27.470;2023-04-29T00:36:54;100574.78;;;7.36;100.00
12801;BME280;6464;42.494;27.470;2023-04-29T00:39:21;100481.75;;;6.62;100.00
12801;BME280;6464;42.494;27.470;2023-04-29T00:41:49;100461.66;;;6.64;100.00
12801;BME280;6464;42.494;27.470;2023-04-29T00:44:18;100507.72;;;7.00;100.00
12801;BME280;6464;42.494;27.470;2023-04-29T00:46:45;100473.97;;;6.53;100.00
12801;BME280;6464;42.494;27.470;2023-04-29T00:49:12;100625.34;;;7.57;100.00
12801;BME280;6464;42.494;27.470;2023-04-29T00:51:41;100467.97;;;6.28;100.00
12801;BME280;6464;42.494;27.470;2023-04-29T00:54:08;100604.53;;;7.32;100.00
12801;BME280;6464;42.494;27.470;2023-04-29T00:56:37;100548.84;;;6.97;100.00
12801;BME280;6464;42.494;27.470;2023-04-29T00:59:06;100427.91;;;6.15;100.00
12801;BME280;6464;42.494;27.470;2023-04-29T04:38:30;100700.22;;;8.04;100.00
12801;BME280;6464;42.494;27.470;2023-04-29T04:41:05;100712.34;;;8.17;100.00
12801;BME280;6464;42.494;27.470;2023-04-29T04:43:42;100729.88;;;8.16;100.00
12801;BME280;6464;42.494;27.470;2023-04-29T04:46:31;100730.72;;;8.20;100.00
12801;BME280;6464;42.494;27.470;2023-04-29T04:49:09;100607.03;;;7.51;100.00
12801;BME280;6464;42.494;27.470;2023-04-29T04:51:44;100732.41;;;8.29;100.00
12801;BME280;6464;42.494;27.470;2023-04-29T04:54:15;100540.91;;;7.03;100.00
12801;BME280;6464;42.494;27.470;2023-04-29T05:41:11;100821.59;;;9.38;100.00
12801;BME280;6464;42.494;27.470;2023-04-29T06:17:37;100696.56;;;10.22;100.00
12801;BME280;6464;42.494;27.470;2023-04-29T06:28:21;100835.81;;;11.02;100.00
12801;BME280;6464;42.494;27.470;2023-04-29T06:30:51;100831.94;;;10.75;100.00
12801;BME280;6464;42.494;27.470;2023-04-29T06:33:23;100929.97;;;11.51;100.00
12801;BME280;6464;42.494;27.470;2023-04-29T06:56:32;101056.53;;;12.96;100.00
12801;BME280;6464;42.494;27.470;2023-04-29T07:01:58;101037.53;;;11.92;100.00
12801;BME280;6464;42.494;27.470;2023-04-29T07:04:58;101129.81;;;12.52;100.00
12801;BME280;6464;42.494;27.470;2023-04-29T07:10:01;101335.66;;;13.73;100.00
12801;BME280;6464;42.494;27.470;2023-04-29T07:12:34;101514.13;;;13.25;100.00
12801;BME280;6464;42.494;27.470;2023-04-29T07:20:47;101458.25;;;12.86;100.00
12801;BME280;6464;42.494;27.470;2023-04-29T07:23:41;101639.41;;;13.86;100.00
12801;BME280;6464;42.494;27.470;2023-04-29T07:26:11;101667.34;;;14.05;100.00
12801;BME280;6464;42.494;27.470;2023-04-29T07:34:43;101831.13;;;15.44;100.00
12801;BME280;6464;42.494;27.470;2023-04-29T07:37:25;101832.03;;;15.43;100.00
12801;BME280;6464;42.494;27.470;2023-04-29T07:40:10;101780.97;;;14.33;100.00
12801;BME280;6464;42.494;27.470;2023-04-29T07:42:44;101815.31;;;14.42;100.00
12801;BME280;6464;42.494;27.470;2023-04-29T07:45:20;101960.25;;;15.57;100.00
12801;BME280;6464;42.494;27.470;2023-04-29T07:47:50;101811.47;;;14.61;100.00
12801;BME280;6464;42.494;27.470;2023-04-29T07:50:29;101819.19;;;14.74;100.00
12801;BME280;6464;42.494;27.470;2023-04-29T07:53:04;101897.59;;;15.44;100.00
12801;BME280;6464;42.494;27.470;2023-04-29T07:55:32;101855.09;;;14.96;100.00
12801;BME280;6464;42.494;27.470;2023-04-29T07:58:00;101966.81;;;15.86;100.00
12801;BME280;6464;42.494;27.470;2023-04-29T08:00:32;101880.59;;;15.53;100.00
12801;BME280;6464;42.494;27.470;2023-04-29T08:03:00;101893.06;;;15.49;100.00
12801;BME280;6464;42.494;27.470;2023-04-29T08:05:49;101923.38;;;15.84;100.00
12801;BME280;6464;42.494;27.470;2023-04-29T08:10:57;101801.25;;;15.33;100.00
12801;BME280;6464;42.494;27.470;2023-04-29T08:13:26;101947.00;;;15.99;100.00
12801;BME280;6464;42.494;27.470;2023-04-29T08:16:01;101787.59;;;15.06;100.00
12801;BME280;6464;42.494;27.470;2023-04-29T08:18:40;101860.47;;;15.83;100.00
12801;BME280;6464;42.494;27.470;2023-04-29T08:21:18;101895.19;;;15.75;100.00
12801;BME280;6464;42.494;27.470;2023-04-29T08:23:53;101799.28;;;15.41;100.00
12801;BME280;6464;42.494;27.470;2023-04-29T08:26:26;101892.63;;;15.71;100.00
12801;BME280;6464;42.494;27.470;2023-04-29T08:28:58;101769.22;;;15.37;100.00
12801;BME280;6464;42.494;27.470;2023-04-29T08:31:36;101926.06;;;16.61;100.00
12801;BME280;6464;42.494;27.470;2023-04-29T08:34:05;102010.47;;;16.96;100.00
12801;BME280;6464;42.494;27.470;2023-04-29T08:36:44;101763.28;;;15.68;100.00
12801;BME280;6464;42.494;27.470;2023-04-29T08:39:22;101925.16;;;16.62;100.00
12801;BME280;6464;42.494;27.470;2023-04-29T08:44:40;101842.38;;;16.36;100.00
12801;BME280;6464;42.494;27.470;2023-04-29T08:47:13;101948.84;;;17.10;100.00
12801;BME280;6464;42.494;27.470;2023-04-29T08:49:55;101752.47;;;15.74;100.00
12801;BME280;6464;42.494;27.470;2023-04-29T08:52:25;101931.09;;;17.09;100.00
12801;BME280;6464;42.494;27.470;2023-04-29T08:54:53;101771.09;;;16.11;100.00
12801;BME280;6464;42.494;27.470;2023-04-29T08:57:25;101957.47;;;17.20;100.00
12801;BME280;6464;42.494;27.470;2023-04-29T08:59:54;101852.41;;;16.25;100.00
12801;BME280;6464;42.494;27.470;2023-04-29T09:02:27;101959.59;;;16.70;100.00
12801;BME280;6464;42.494;27.470;2023-04-29T09:05:04;101827.31;;;16.35;100.00
12801;BME280;6464;42.494;27.470;2023-04-29T09:13:33;101771.41;;;16.67;100.00
12801;BME280;6464;42.494;27.470;2023-04-29T09:16:01;101905.41;;;17.70;100.00
12801;BME280;6464;42.494;27.470;2023-04-29T09:18:45;101934.22;;;17.89;100.00
12801;BME280;6464;42.494;27.470;2023-04-29T09:21:16;101813.59;;;17.48;100.00
12801;BME280;6464;42.494;27.470;2023-04-29T09:23:53;101907.91;;;18.06;100.00
12801;BME280;6464;42.494;27.470;2023-04-29T09:34:15;101937.06;;;24.64;85.53
12801;BME280;6464;42.494;27.470;2023-04-29T09:36:45;102055.91;;;25.84;73.07
12801;BME280;6464;42.494;27.470;2023-04-29T09:39:13;102026.50;;;22.67;74.98
12801;BME280;6464;42.494;27.470;2023-04-29T09:41:59;101957.75;;;20.38;100.00
12801;BME280;6464;42.494;27.470;2023-04-29T09:44:30;101963.66;;;20.01;100.00
12801;BME280;6464;42.494;27.470;2023-04-29T10:00:39;101824.41;;;20.01;100.00
12801;BME280;6464;42.494;27.470;2023-04-29T10:03:28;101832.88;;;22.13;100.00
12801;BME280;6464;42.494;27.470;2023-04-29T10:05:58;101919.56;;;21.79;100.00
12801;BME280;6464;42.494;27.470;2023-04-29T10:08:26;101914.84;;;21.45;100.00
12801;BME280;6464;42.494;27.470;2023-04-29T10:10:53;101922.16;;;21.62;100.00
12801;BME280;6464;42.494;27.470;2023-04-29T10:19:38;101620.84;;;17.15;100.00
12801;BME280;6464;42.494;27.470;2023-04-29T10:24:42;101579.88;;;17.45;100.00
12801;BME280;6464;42.494;27.470;2023-04-29T10:27:17;101756.38;;;19.16;100.00
12801;BME280;6464;42.494;27.470;2023-04-29T10:32:39;101699.91;;;18.00;100.00
12801;BME280;6464;42.494;27.470;2023-04-29T10:37:46;101819.53;;;21.55;100.00
12801;BME280;6464;42.494;27.470;2023-04-29T10:40:16;101880.66;;;22.25;100.00
12801;BME280;6464;42.494;27.470;2023-04-29T10:42:47;101884.13;;;24.47;100.00
12801;BME280;6464;42.494;27.470;2023-04-29T10:45:24;101822.69;;;22.91;100.00
12801;BME280;6464;42.494;27.470;2023-04-29T10:48:15;101856.19;;;22.13;100.00
12801;BME280;6464;42.494;27.470;2023-04-29T10:51:01;101875.22;;;25.21;100.00
12801;BME280;6464;42.494;27.470;2023-04-29T10:53:30;101923.91;;;27.27;100.00
12801;BME280;6464;42.494;27.470;2023-04-29T10:56:06;101882.88;;;26.54;100.00
12801;BME280;6464;42.494;27.470;2023-04-29T10:58:39;101941.69;;;27.95;91.04
12801;BME280;6464;42.494;27.470;2023-04-29T11:01:09;101947.84;;;28.94;84.82
12801;BME280;6464;42.494;27.470;2023-04-29T11:03:54;101995.25;;;30.51;76.37
12801;BME280;6464;42.494;27.470;2023-04-29T11:06:24;101906.47;;;25.96;89.46
12801;BME280;6464;42.494;27.470;2023-04-29T11:09:06;101896.81;;;26.06;98.09
12801;BME280;6464;42.494;27.470;2023-04-29T11:11:46;101888.69;;;26.87;100.00
12801;BME280;6464;42.494;27.470;2023-04-29T11:14:15;101894.13;;;26.33;100.00
12801;BME280;6464;42.494;27.470;2023-04-29T11:16:47;101859.31;;;25.45;100.00
12801;BME280;6464;42.494;27.470;2023-04-29T11:19:15;101835.53;;;23.85;100.00
12801;BME280;6464;42.494;27.470;2023-04-29T11:21:43;101816.41;;;23.90;100.00
12801;BME280;6464;42.494;27.470;2023-04-29T11:24:13;101756.16;;;24.06;100.00
12801;BME280;6464;42.494;27.470;2023-04-29T11:26:42;101793.66;;;22.97;100.00
12801;BME280;6464;42.494;27.470;2023-04-29T11:29:10;101787.34;;;23.63;100.00
12801;BME280;6464;42.494;27.470;2023-04-29T11:31:37;101803.88;;;23.24;100.00
12801;BME280;6464;42.494;27.470;2023-04-29T11:34:05;101758.47;;;22.32;100.00
12801;BME280;6464;42.494;27.470;2023-04-29T11:36:33;101829.91;;;24.51;100.00
12801;BME280;6464;42.494;27.470;2023-04-29T11:39:00;101893.56;;;27.73;100.00
12801;BME280;6464;42.494;27.470;2023-04-29T11:41:29;101880.09;;;26.14;100.00
12801;BME280;6464;42.494;27.470;2023-04-29T11:43:58;101901.44;;;27.51;92.66
12801;BME280;6464;42.494;27.470;2023-04-29T11:46:29;101921.06;;;28.29;83.66
12801;BME280;6464;42.494;27.470;2023-04-29T11:48:56;101921.28;;;27.38;78.61
12801;BME280;6464;42.494;27.470;2023-04-29T11:51:23;101844.66;;;25.77;81.86
12801;BME280;6464;42.494;27.470;2023-04-29T11:53:50;101880.28;;;27.05;83.08
12801;BME280;6464;42.494;27.470;2023-04-29T11:56:20;101913.31;;;28.12;78.08
12801;BME280;6464;42.494;27.470;2023-04-29T11:58:53;101870.19;;;26.27;81.51
12801;BME280;6464;42.494;27.470;2023-04-29T12:01:20;101865.91;;;26.37;84.10
12801;BME280;6464;42.494;27.470;2023-04-29T12:03:48;101857.75;;;27.68;77.17
12801;BME280;6464;42.494;27.470;2023-04-29T12:06:15;101843.69;;;25.21;81.09
12801;BME280;6464;42.494;27.470;2023-04-29T12:08:42;101868.22;;;26.44;78.62
12801;BME280;6464;42.494;27.470;2023-04-29T12:11:09;101865.88;;;26.79;80.66
12801;BME280;6464;42.494;27.470;2023-04-29T12:13:36;101875.72;;;28.18;81.05
12801;BME280;6464;42.494;27.470;2023-04-29T12:16:05;101910.66;;;30.42;74.33
12801;BME280;6464;42.494;27.470;2023-04-29T12:18:33;101943.88;;;31.42;64.79
12801;BME280;6464;42.494;27.470;2023-04-29T12:21:00;101883.53;;;31.05;61.84
12801;BME280;6464;42.494;27.470;2023-04-29T12:23:27;101867.06;;;28.13;63.12
12801;BME280;6464;42.494;27.470;2023-04-29T12:25:55;101856.81;;;27.44;67.43
12801;BME280;6464;42.494;27.470;2023-04-29T12:28:23;101882.75;;;29.28;68.19
12801;BME280;6464;42.494;27.470;2023-04-29T12:30:51;101850.25;;;28.80;71.08
12801;BME280;6464;42.494;27.470;2023-04-29T12:33:21;101921.34;;;31.40;63.35
12801;BME280;6464;42.494;27.470;2023-04-29T12:35:49;101928.47;;;31.83;58.93
12801;BME280;6464;42.494;27.470;2023-04-29T12:38:19;101923.13;;;32.12;56.44
12801;BME280;6464;42.494;27.470;2023-04-29T12:40:47;101924.16;;;30.76;54.04
12801;BME280;6464;42.494;27.470;2023-04-29T12:43:15;101904.63;;;30.71;55.26
12801;BME280;6464;42.494;27.470;2023-04-29T12:45:43;101911.59;;;30.85;54.79
12801;BME280;6464;42.494;27.470;2023-04-29T12:48:10;101916.25;;;32.28;54.43
12801;BME280;6464;42.494;27.470;2023-04-29T12:50:39;101912.03;;;32.14;53.07
12801;BME280;6464;42.494;27.470;2023-04-29T12:53:07;101908.81;;;32.39;52.73
12801;BME280;6464;42.494;27.470;2023-04-29T12:55:36;101910.16;;;32.84;53.35
12801;BME280;6464;42.494;27.470;2023-04-29T12:58:04;101889.88;;;32.57;54.34
12801;BME280;6464;42.494;27.470;2023-04-29T13:00:31;101885.56;;;32.74;54.59
12801;BME280;6464;42.494;27.470;2023-04-29T13:02:59;101885.44;;;33.42;52.35
12801;BME280;6464;42.494;27.470;2023-04-29T13:05:26;101852.59;;;31.16;55.31
12801;BME280;6464;42.494;27.470;2023-04-29T13:07:54;101810.88;;;29.21;58.22
12801;BME280;6464;42.494;27.470;2023-04-29T13:10:21;101756.41;;;25.35;71.52
12801;BME280;6464;42.494;27.470;2023-04-29T13:12:48;101718.59;;;24.92;79.71
12801;BME280;6464;42.494;27.470;2023-04-29T13:15:15;101751.97;;;26.69;76.68
12801;BME280;6464;42.494;27.470;2023-04-29T13:17:42;101777.69;;;28.12;70.63
12801;BME280;6464;42.494;27.470;2023-04-29T13:20:11;101831.50;;;29.80;63.09
12801;BME280;6464;42.494;27.470;2023-04-29T13:22:38;101840.53;;;30.88;58.52
12801;BME280;6464;42.494;27.470;2023-04-29T13:25:07;101873.09;;;32.02;53.92
12801;BME280;6464;42.494;27.470;2023-04-29T13:27:34;101870.72;;;31.78;54.21
12801;BME280;6464;42.494;27.470;2023-04-29T13:30:01;101871.44;;;32.20;54.72
12801;BME280;6464;42.494;27.470;2023-04-29T13:32:28;101873.19;;;32.51;53.45
12801;BME280;6464;42.494;27.470;2023-04-29T13:34:55;101872.13;;;32.22;52.12
12801;BME280;6464;42.494;27.470;2023-04-29T13:37:22;101846.16;;;31.17;52.91
12801;BME280;6464;42.494;27.470;2023-04-29T13:39:49;101840.81;;;30.53;53.54
12801;BME280;6464;42.494;27.470;2023-04-29T13:42:17;101812.28;;;29.92;56.12
12801;BME280;6464;42.494;27.470;2023-04-29T13:44:44;101821.03;;;31.34;55.77
12801;BME280;6464;42.494;27.470;2023-04-29T13:47:11;101814.84;;;31.32;55.76
12801;BME280;6464;42.494;27.470;2023-04-29T13:49:39;101806.34;;;31.66;54.34
12801;BME280;6464;42.494;27.470;2023-04-29T13:52:06;101826.75;;;31.81;54.38
12801;BME280;6464;42.494;27.470;2023-04-29T13:54:33;101835.78;;;32.22;54.83
12801;BME280;6464;42.494;27.470;2023-04-29T13:57:00;101799.34;;;30.81;57.27
12801;BME280;6464;42.494;27.470;2023-04-29T13:59:30;101796.44;;;31.65;56.07
12801;BME280;6464;42.494;27.470;2023-04-29T14:01:56;101800.44;;;32.01;55.79
12801;BME280;6464;42.494;27.470;2023-04-29T14:04:23;101804.75;;;31.54;55.48
12801;BME280;6464;42.494;27.470;2023-04-29T14:06:50;101799.44;;;31.62;58.28
12801;BME280;6464;42.494;27.470;2023-04-29T14:09:18;101789.72;;;31.69;58.64
12801;BME280;6464;42.494;27.470;2023-04-29T14:11:45;101772.06;;;30.71;60.81
12801;BME280;6464;42.494;27.470;2023-04-29T14:14:12;101769.16;;;30.94;60.77
12801;BME280;6464;42.494;27.470;2023-04-29T14:16:41;101777.09;;;31.28;60.48
12801;BME280;6464;42.494;27.470;2023-04-29T14:19:08;101783.75;;;31.44;58.98
12801;BME280;6464;42.494;27.470;2023-04-29T14:21:34;101779.63;;;31.50;58.42
12801;BME280;6464;42.494;27.470;2023-04-29T14:24:02;101746.00;;;30.58;58.97
12801;BME280;6464;42.494;27.470;2023-04-29T14:26:29;101772.63;;;30.96;58.69
12801;BME280;6464;42.494;27.470;2023-04-29T14:28:56;101768.78;;;30.57;59.45
12801;BME280;6464;42.494;27.470;2023-04-29T14:31:24;101722.69;;;28.91;61.39
12801;BME280;6464;42.494;27.470;2023-04-29T14:33:53;101717.88;;;29.17;63.02
12801;BME280;6464;42.494;27.470;2023-04-29T14:36:20;101745.59;;;29.77;61.44
12801;BME280;6464;42.494;27.470;2023-04-29T14:38:47;101727.56;;;30.08;60.60
12801;BME280;6464;42.494;27.470;2023-04-29T14:41:14;101743.19;;;29.07;61.81
12801;BME280;6464;42.494;27.470;2023-04-29T14:43:41;101724.94;;;28.51;63.19
12801;BME280;6464;42.494;27.470;2023-04-29T14:46:08;101711.41;;;28.27;65.34
12801;BME280;6464;42.494;27.470;2023-04-29T14:48:35;101645.66;;;27.53;69.87
12801;BME280;6464;42.494;27.470;2023-04-29T14:51:04;101674.56;;;26.67;73.68
12801;BME280;6464;42.494;27.470;2023-04-29T14:53:31;101661.06;;;25.74;78.87
12801;BME280;6464;42.494;27.470;2023-04-29T14:55:58;101628.28;;;24.98;92.64
12801;BME280;6464;42.494;27.470;2023-04-29T14:58:25;101666.22;;;26.57;79.45
12801;BME280;6464;42.494;27.470;2023-04-29T15:00:52;101667.75;;;26.48;79.09
12801;BME280;6464;42.494;27.470;2023-04-29T15:03:19;101665.66;;;26.26;77.84
12801;BME280;6464;42.494;27.470;2023-04-29T15:05:46;101694.03;;;27.47;71.06
12801;BME280;6464;42.494;27.470;2023-04-29T15:08:15;101681.81;;;26.79;71.93
12801;BME280;6464;42.494;27.470;2023-04-29T15:10:42;101675.31;;;26.69;75.77
12801;BME280;6464;42.494;27.470;2023-04-29T15:13:11;101578.06;;;25.63;81.15
12801;BME280;6464;42.494;27.470;2023-04-29T15:15:38;101625.09;;;26.26;88.44
12801;BME280;6464;42.494;27.470;2023-04-29T15:18:05;101539.09;;;26.06;88.37
12801;BME280;6464;42.494;27.470;2023-04-29T15:20:33;101653.97;;;26.26;91.49
12801;BME280;6464;42.494;27.470;2023-04-29T15:23:00;101605.72;;;26.32;90.05
12801;BME280;6464;42.494;27.470;2023-04-29T15:25:29;101623.19;;;25.07;100.00
12801;BME280;6464;42.494;27.470;2023-04-29T15:27:58;101608.81;;;24.35;100.00
12801;BME280;6464;42.494;27.470;2023-04-29T15:30:25;101527.16;;;23.91;100.00
12801;BME280;6464;42.494;27.470;2023-04-29T15:32:52;101605.38;;;24.33;100.00
12801;BME280;6464;42.494;27.470;2023-04-29T15:35:18;101546.72;;;23.64;100.00
12801;BME280;6464;42.494;27.470;2023-04-29T15:37:45;101612.06;;;24.12;100.00
12801;BME280;6464;42.494;27.470;2023-04-29T15:40:12;101622.28;;;24.21;100.00
12801;BME280;6464;42.494;27.470;2023-04-29T15:42:42;101634.00;;;24.65;100.00
12801;BME280;6464;42.494;27.470;2023-04-29T15:45:10;101633.81;;;24.53;100.00
12801;BME280;6464;42.494;27.470;2023-04-29T15:47:37;101607.94;;;24.06;100.00
12801;BME280;6464;42.494;27.470;2023-04-29T15:50:05;101595.78;;;22.92;100.00
12801;BME280;6464;42.494;27.470;2023-04-29T15:52:38;101473.41;;;21.00;100.00
12801;BME280;6464;42.494;27.470;2023-04-29T15:55:34;101527.53;;;19.93;100.00
12801;BME280;6464;42.494;27.470;2023-04-29T16:13:40;101216.44;;;15.36;100.00
12801;BME280;6464;42.494;27.470;2023-04-29T16:19:26;101262.28;;;15.13;100.00
12801;BME280;6464;42.494;27.470;2023-04-29T16:22:11;101235.69;;;15.14;100.00
12801;BME280;6464;42.494;27.470;2023-04-29T16:24:50;101235.19;;;15.00;100.00
12801;BME280;6464;42.494;27.470;2023-04-29T16:27:31;101092.31;;;14.20;100.00
12801;BME280;6464;42.494;27.470;2023-04-29T16:30:34;101079.53;;;14.03;100.00
12801;BME280;6464;42.494;27.470;2023-04-29T16:33:20;101272.91;;;15.13;100.00
12801;BME280;6464;42.494;27.470;2023-04-29T16:36:01;101283.19;;;14.94;100.00
12801;BME280;6464;42.494;27.470;2023-04-29T16:38:30;101162.50;;;14.06;100.00
12801;BME280;6464;42.494;27.470;2023-04-29T16:40:58;101170.94;;;13.88;100.00
12801;BME280;6464;42.494;27.470;2023-04-29T16:43:25;101261.84;;;14.29;100.00
12801;BME280;6464;42.494;27.470;2023-04-29T16:45:56;101195.69;;;13.87;100.00
12801;BME280;6464;42.494;27.470;2023-04-29T16:48:25;101166.09;;;13.70;100.00
12801;BME280;6464;42.494;27.470;2023-04-29T16:50:56;101272.06;;;14.44;100.00
12801;BME280;6464;42.494;27.470;2023-04-29T16:53:31;101017.72;;;12.95;100.00
12801;BME280;6464;42.494;27.470;2023-04-29T16:56:07;101069.78;;;13.35;100.00
12801;BME280;6464;42.494;27.470;2023-04-29T16:58:38;101186.19;;;14.14;100.00
12801;BME280;6464;42.494;27.470;2023-04-29T17:01:18;101102.47;;;13.70;100.00
12801;BME280;6464;42.494;27.470;2023-04-29T17:03:46;100939.63;;;12.77;100.00
12801;BME280;6464;42.494;27.470;2023-04-29T17:06:15;101091.53;;;13.83;100.00
12801;BME280;6464;42.494;27.470;2023-04-29T17:08:46;101007.13;;;13.32;100.00
12801;BME280;6464;42.494;27.470;2023-04-29T17:11:15;100873.34;;;12.82;100.00
12801;BME280;6464;42.494;27.470;2023-04-29T17:13:43;100758.03;;;12.39;100.00
12801;BME280;6464;42.494;27.470;2023-04-29T17:16:11;100826.47;;;12.85;100.00
12801;BME280;6464;42.494;27.470;2023-04-29T17:18:41;100719.56;;;12.26;100.00
12801;BME280;6464;42.494;27.470;2023-04-29T17:21:10;100743.41;;;12.23;100.00
12801;BME280;6464;42.494;27.470;2023-04-29T17:23:38;100755.38;;;12.38;100.00
12801;BME280;6464;42.494;27.470;2023-04-29T17:26:12;100801.66;;;12.90;100.00
12801;BME280;6464;42.494;27.470;2023-04-29T17:28:41;100834.50;;;13.17;100.00
12801;BME280;6464;42.494;27.470;2023-04-29T17:31:11;100746.59;;;12.37;100.00
12801;BME280;6464;42.494;27.470;2023-04-29T17:33:41;100844.34;;;12.77;100.00
12801;BME280;6464;42.494;27.470;2023-04-29T17:36:19;100766.41;;;12.21;100.00
12801;BME280;6464;42.494;27.470;2023-04-29T17:38:49;100675.97;;;11.69;100.00
12801;BME280;6464;42.494;27.470;2023-04-29T17:41:17;100686.91;;;11.54;100.00
12801;BME280;6464;42.494;27.470;2023-04-29T17:43:50;100933.00;;;12.95;100.00
12801;BME280;6464;42.494;27.470;2023-04-29T17:46:19;100804.66;;;12.06;100.00
12801;BME280;6464;42.494;27.470;2023-04-29T17:48:49;100774.19;;;11.48;100.00
12801;BME280;6464;42.494;27.470;2023-04-29T17:51:19;100767.09;;;11.50;100.00
12801;BME280;6464;42.494;27.470;2023-04-29T17:53:49;100862.81;;;12.06;100.00
12801;BME280;6464;42.494;27.470;2023-04-29T17:56:19;100750.88;;;11.26;100.00
12801;BME280;6464;42.494;27.470;2023-04-29T17:58:51;100979.22;;;12.82;100.00
12801;BME280;6464;42.494;27.470;2023-04-29T18:01:20;100984.63;;;12.76;100.00
12801;BME280;6464;42.494;27.470;2023-04-29T18:03:49;100746.78;;;11.53;100.00
12801;BME280;6464;42.494;27.470;2023-04-29T18:06:21;100907.00;;;12.40;100.00
12801;BME280;6464;42.494;27.470;2023-04-29T18:08:59;100698.97;;;11.27;100.00
12801;BME280;6464;42.494;27.470;2023-04-29T18:11:31;100890.50;;;12.66;100.00
12801;BME280;6464;42.494;27.470;2023-04-29T18:14:08;100606.47;;;11.30;100.00
12801;BME280;6464;42.494;27.470;2023-04-29T18:16:40;100520.03;;;11.02;100.00
12801;BME280;6464;42.494;27.470;2023-04-29T18:19:43;100533.66;;;11.21;100.00
12801;BME280;6464;42.494;27.470;2023-04-29T18:22:37;100682.88;;;12.48;100.00
12801;BME280;6464;42.494;27.470;2023-04-29T18:25:20;100402.06;;;11.07;100.00
12801;BME280;6464;42.494;27.470;2023-04-29T18:28:19;100363.50;;;11.00;100.00
12801;BME280;6464;42.494;27.470;2023-04-29T18:31:02;100512.31;;;11.99;100.00
12801;BME280;6464;42.494;27.470;2023-04-29T18:33:48;100321.59;;;10.90;100.00
12801;BME280;6464;42.494;27.470;2023-04-29T18:36:23;100453.94;;;11.75;100.00
12801;BME280;6464;42.494;27.470;2023-04-29T18:38:53;100537.91;;;12.29;100.00
12801;BME280;6464;42.494;27.470;2023-04-29T18:41:23;100408.97;;;11.44;100.00
12801;BME280;6464;42.494;27.470;2023-04-29T18:43:51;100583.91;;;12.24;100.00
12801;BME280;6464;42.494;27.470;2023-04-29T18:46:22;100440.16;;;11.31;100.00
12801;BME280;6464;42.494;27.470;2023-04-29T18:48:55;100548.50;;;11.97;100.00
12801;BME280;6464;42.494;27.470;2023-04-29T18:51:36;100591.91;;;12.21;100.00
12801;BME280;6464;42.494;27.470;2023-04-29T18:54:06;100416.56;;;11.24;100.00
12801;BME280;6464;42.494;27.470;2023-04-29T18:56:40;100591.34;;;12.09;100.00
12801;BME280;6464;42.494;27.470;2023-04-29T18:59:08;100378.94;;;11.17;100.00
12801;BME280;6464;42.494;27.470;2023-04-29T19:01:39;100284.31;;;10.69;100.00
12801;BME280;6464;42.494;27.470;2023-04-29T19:04:09;100281.41;;;11.11;100.00
12801;BME280;6464;42.494;27.470;2023-04-29T19:06:41;100301.66;;;11.11;100.00
12801;BME280;6464;42.494;27.470;2023-04-29T19:09:10;100295.44;;;10.80;100.00
12801;BME280;6464;42.494;27.470;2023-04-29T19:11:39;100235.91;;;10.38;100.00
12801;BME280;6464;42.494;27.470;2023-04-29T19:14:07;100326.75;;;10.94;100.00
12801;BME280;6464;42.494;27.470;2023-04-29T19:19:44;100304.22;;;10.81;100.00
12801;BME280;6464;42.494;27.470;2023-04-29T19:24:56;100234.41;;;10.27;100.00
12801;BME280;6464;42.494;27.470;2023-04-29T19:27:24;100441.41;;;11.49;100.00
12801;BME280;6464;42.494;27.470;2023-04-29T19:29:53;100325.94;;;10.57;100.00
12801;BME280;6464;42.494;27.470;2023-04-29T19:32:21;100468.06;;;11.40;100.00
12801;BME280;6464;42.494;27.470;2023-04-29T19:34:50;100315.63;;;10.47;100.00
12801;BME280;6464;42.494;27.470;2023-04-29T19:37:19;100319.88;;;10.53;100.00
12801;BME280;6464;42.494;27.470;2023-04-29T19:39:47;100251.19;;;10.22;100.00
12801;BME280;6464;42.494;27.470;2023-04-29T19:42:57;100217.97;;;9.79;100.00
12801;BME280;6464;42.494;27.470;2023-04-29T19:45:46;100184.91;;;9.66;100.00
12801;BME280;6464;42.494;27.470;2023-04-29T19:56:38;100407.78;;;10.88;100.00
12801;BME280;6464;42.494;27.470;2023-04-29T19:59:47;100303.50;;;10.40;100.00
12801;BME280;6464;42.494;27.470;2023-04-29T20:02:29;100261.69;;;10.25;100.00
12801;BME280;6464;42.494;27.470;2023-04-29T20:05:11;100244.63;;;10.02;100.00
12801;BME280;6464;42.494;27.470;2023-04-29T20:10:52;100166.38;;;9.72;100.00